sensor_id;sensor_type;location;lat;lon;timestamp;P1;durP1;ratioP1;P2;durP2;ratioP2
4527;SDS011;62320;51.520;6.818;2023-04-07T00:07:22;32.30;;;15.93;;
4527;SDS011;62320;51.520;6.818;2023-04-07T00:17:24;28.77;;;15.03;;
4527;SDS011;62320;51.520;6.818;2023-04-07T00:27:25;31.48;;;15.45;;
4527;SDS011;62320;51.520;6.818;2023-04-07T00:37:27;34.57;;;17.07;;
4527;SDS011;62320;51.520;6.818;2023-04-07T00:47:29;38.33;;;17.30;;
4527;SDS011;62320;51.520;6.818;2023-04-07T00:57:30;34.45;;;16.10;;
4527;SDS011;62320;51.520;6.818;2023-04-07T01:07:33;34.90;;;16.13;;
4527;SDS011;62320;51.520;6.818;2023-04-07T01:17:44;33.63;;;16.00;;
4527;SDS011;62320;51.520;6.818;2023-04-07T01:37:53;29.23;;;11.70;;
4527;SDS011;62320;51.520;6.818;2023-04-07T01:47:56;34.30;;;13.77;;
4527;SDS011;62320;51.520;6.818;2023-04-07T01:57:58;34.57;;;14.60;;
4527;SDS011;62320;51.520;6.818;2023-04-07T02:08:04;43.33;;;17.00;;
4527;SDS011;62320;51.520;6.818;2023-04-07T02:18:08;43.23;;;17.07;;
4527;SDS011;62320;51.520;6.818;2023-04-07T02:28:12;45.03;;;17.13;;
4527;SDS011;62320;51.520;6.818;2023-04-07T02:38:14;43.08;;;16.42;;
4527;SDS011;62320;51.520;6.818;2023-04-07T02:48:16;39.07;;;14.60;;
4527;SDS011;62320;51.520;6.818;2023-04-07T02:58:17;44.07;;;15.90;;
4527;SDS011;62320;51.520;6.818;2023-04-07T03:08:19;43.80;;;15.73;;
4527;SDS011;62320;51.520;6.818;2023-04-07T03:18:20;36.53;;;14.02;;
4527;SDS011;62320;51.520;6.818;2023-04-07T03:28:22;32.47;;;12.53;;
4527;SDS011;62320;51.520;6.818;2023-04-07T03:38:24;34.97;;;13.07;;
4527;SDS011;62320;51.520;6.818;2023-04-07T03:48:26;29.65;;;10.52;;
4527;SDS011;62320;51.520;6.818;2023-04-07T03:58:29;21.87;;;7.87;;
4527;SDS011;62320;51.520;6.818;2023-04-07T04:08:31;33.13;;;11.13;;
4527;SDS011;62320;51.520;6.818;2023-04-07T04:18:32;33.72;;;11.15;;
4527;SDS011;62320;51.520;6.818;2023-04-07T04:28:33;28.77;;;10.77;;
4527;SDS011;62320;51.520;6.818;2023-04-07T04:38:35;24.50;;;8.73;;
4527;SDS011;62320;51.520;6.818;2023-04-07T04:48:36;25.45;;;9.20;;
4527;SDS011;62320;51.520;6.818;2023-04-07T04:58:38;23.80;;;8.15;;
4527;SDS011;62320;51.520;6.818;2023-04-07T05:08:46;27.90;;;8.87;;
4527;SDS011;62320;51.520;6.818;2023-04-07T05:18:48;23.53;;;8.43;;
4527;SDS011;62320;51.520;6.818;2023-04-07T05:28:49;24.73;;;8.35;;
4527;SDS011;62320;51.520;6.818;2023-04-07T05:38:51;18.70;;;6.63;;
4527;SDS011;62320;51.520;6.818;2023-04-07T05:48:52;17.87;;;6.60;;
4527;SDS011;62320;51.520;6.818;2023-04-07T05:58:54;17.48;;;6.03;;
4527;SDS011;62320;51.520;6.818;2023-04-07T06:08:56;16.83;;;5.70;;
4527;SDS011;62320;51.520;6.818;2023-04-07T06:18:57;16.30;;;5.73;;
4527;SDS011;62320;51.520;6.818;2023-04-07T06:28:59;19.98;;;7.60;;
4527;SDS011;62320;51.520;6.818;2023-04-07T06:39:00;26.60;;;8.50;;
4527;SDS011;62320;51.520;6.818;2023-04-07T06:49:02;28.93;;;9.67;;
4527;SDS011;62320;51.520;6.818;2023-04-07T06:59:04;28.53;;;9.70;;
4527;SDS011;62320;51.520;6.818;2023-04-07T07:09:05;29.63;;;8.43;;
4527;SDS011;62320;51.520;6.818;2023-04-07T07:19:06;30.40;;;9.77;;
4527;SDS011;62320;51.520;6.818;2023-04-07T07:29:08;24.70;;;8.43;;
4527;SDS011;62320;51.520;6.818;2023-04-07T07:39:09;21.95;;;7.82;;
4527;SDS011;62320;51.520;6.818;2023-04-07T07:49:11;23.67;;;8.70;;
4527;SDS011;62320;51.520;6.818;2023-04-07T07:59:12;24.37;;;8.53;;
4527;SDS011;62320;51.520;6.818;2023-04-07T08:09:17;20.77;;;7.85;;
4527;SDS011;62320;51.520;6.818;2023-04-07T08:19:19;21.63;;;7.70;;
4527;SDS011;62320;51.520;6.818;2023-04-07T08:29:20;18.03;;;6.40;;
4527;SDS011;62320;51.520;6.818;2023-04-07T08:39:22;25.30;;;8.30;;
4527;SDS011;62320;51.520;6.818;2023-04-07T08:49:26;22.00;;;7.80;;
4527;SDS011;62320;51.520;6.818;2023-04-07T08:59:29;18.00;;;6.87;;
4527;SDS011;62320;51.520;6.818;2023-04-07T09:09:33;18.33;;;6.50;;
4527;SDS011;62320;51.520;6.818;2023-04-07T09:19:35;16.98;;;6.00;;
4527;SDS011;62320;51.520;6.818;2023-04-07T09:29:37;19.47;;;6.47;;
4527;SDS011;62320;51.520;6.818;2023-04-07T09:39:47;20.70;;;7.90;;
4527;SDS011;62320;51.520;6.818;2023-04-07T09:49:51;24.65;;;8.40;;
4527;SDS011;62320;51.520;6.818;2023-04-07T09:59:54;17.83;;;6.55;;
4527;SDS011;62320;51.520;6.818;2023-04-07T10:09:57;21.13;;;6.90;;
4527;SDS011;62320;51.520;6.818;2023-04-07T10:19:58;20.57;;;7.50;;
4527;SDS011;62320;51.520;6.818;2023-04-07T10:30:02;16.83;;;6.82;;
4527;SDS011;62320;51.520;6.818;2023-04-07T10:50:20;19.97;;;6.13;;
4527;SDS011;62320;51.520;6.818;2023-04-07T11:00:23;17.05;;;5.40;;
4527;SDS011;62320;51.520;6.818;2023-04-07T11:10:24;16.07;;;5.20;;
4527;SDS011;62320;51.520;6.818;2023-04-07T11:20:39;13.33;;;5.20;;
4527;SDS011;62320;51.520;6.818;2023-04-07T11:30:50;14.98;;;4.88;;
4527;SDS011;62320;51.520;6.818;2023-04-07T11:40:54;12.82;;;4.38;;
4527;SDS011;62320;51.520;6.818;2023-04-07T11:50:57;16.53;;;5.07;;
4527;SDS011;62320;51.520;6.818;2023-04-07T12:01:01;16.43;;;6.10;;
4527;SDS011;62320;51.520;6.818;2023-04-07T12:11:06;19.83;;;6.65;;
4527;SDS011;62320;51.520;6.818;2023-04-07T12:21:09;15.90;;;6.23;;
4527;SDS011;62320;51.520;6.818;2023-04-07T12:31:10;18.27;;;7.07;;
4527;SDS011;62320;51.520;6.818;2023-04-07T12:41:12;13.65;;;5.30;;
4527;SDS011;62320;51.520;6.818;2023-04-07T12:51:13;18.07;;;7.70;;
4527;SDS011;62320;51.520;6.818;2023-04-07T13:01:15;24.87;;;9.10;;
4527;SDS011;62320;51.520;6.818;2023-04-07T13:11:17;26.38;;;8.07;;
4527;SDS011;62320;51.520;6.818;2023-04-07T13:21:18;20.75;;;8.02;;
4527;SDS011;62320;51.520;6.818;2023-04-07T13:31:40;23.83;;;8.90;;
4527;SDS011;62320;51.520;6.818;2023-04-07T13:41:41;25.33;;;8.23;;
4527;SDS011;62320;51.520;6.818;2023-04-07T13:51:43;18.45;;;7.82;;
4527;SDS011;62320;51.520;6.818;2023-04-07T14:01:44;16.70;;;7.20;;
4527;SDS011;62320;51.520;6.818;2023-04-07T14:11:46;14.13;;;5.30;;
4527;SDS011;62320;51.520;6.818;2023-04-07T14:21:48;11.95;;;5.47;;
4527;SDS011;62320;51.520;6.818;2023-04-07T14:31:53;16.30;;;6.97;;
4527;SDS011;62320;51.520;6.818;2023-04-07T14:41:55;17.00;;;6.93;;
4527;SDS011;62320;51.520;6.818;2023-04-07T14:51:57;20.52;;;8.55;;
4527;SDS011;62320;51.520;6.818;2023-04-07T15:01:59;23.23;;;8.75;;
4527;SDS011;62320;51.520;6.818;2023-04-07T15:12:00;23.37;;;8.77;;
4527;SDS011;62320;51.520;6.818;2023-04-07T15:22:02;26.57;;;10.33;;
4527;SDS011;62320;51.520;6.818;2023-04-07T15:32:04;24.10;;;9.48;;
4527;SDS011;62320;51.520;6.818;2023-04-07T15:42:05;25.53;;;9.33;;
4527;SDS011;62320;51.520;6.818;2023-04-07T15:52:12;21.83;;;8.07;;
4527;SDS011;62320;51.520;6.818;2023-04-07T16:02:14;16.38;;;6.43;;
4527;SDS011;62320;51.520;6.818;2023-04-07T16:12:15;12.63;;;4.97;;
4527;SDS011;62320;51.520;6.818;2023-04-07T16:22:18;12.43;;;5.23;;
4527;SDS011;62320;51.520;6.818;2023-04-07T16:32:19;12.60;;;5.30;;
4527;SDS011;62320;51.520;6.818;2023-04-07T16:42:21;12.52;;;5.18;;
4527;SDS011;62320;51.520;6.818;2023-04-07T16:52:25;14.17;;;5.60;;
4527;SDS011;62320;51.520;6.818;2023-04-07T17:02:27;14.07;;;5.80;;
4527;SDS011;62320;51.520;6.818;2023-04-07T17:12:28;15.10;;;5.50;;
4527;SDS011;62320;51.520;6.818;2023-04-07T17:22:30;15.73;;;7.13;;
4527;SDS011;62320;51.520;6.818;2023-04-07T17:32:31;16.40;;;6.67;;
4527;SDS011;62320;51.520;6.818;2023-04-07T17:42:33;16.02;;;7.53;;
4527;SDS011;62320;51.520;6.818;2023-04-07T17:52:34;19.33;;;7.37;;
4527;SDS011;62320;51.520;6.818;2023-04-07T18:02:36;17.80;;;7.37;;
4527;SDS011;62320;51.520;6.818;2023-04-07T18:12:40;16.63;;;7.72;;
4527;SDS011;62320;51.520;6.818;2023-04-07T18:22:41;17.60;;;6.85;;
4527;SDS011;62320;51.520;6.818;2023-04-07T18:32:44;20.87;;;9.37;;
4527;SDS011;62320;51.520;6.818;2023-04-07T18:42:46;18.63;;;9.30;;
4527;SDS011;62320;51.520;6.818;2023-04-07T18:52:48;21.45;;;8.18;;
4527;SDS011;62320;51.520;6.818;2023-04-07T19:02:49;19.90;;;8.07;;
4527;SDS011;62320;51.520;6.818;2023-04-07T19:12:51;18.20;;;7.30;;
4527;SDS011;62320;51.520;6.818;2023-04-07T19:22:53;19.45;;;8.27;;
4527;SDS011;62320;51.520;6.818;2023-04-07T19:32:54;20.53;;;8.30;;
4527;SDS011;62320;51.520;6.818;2023-04-07T19:42:56;20.23;;;7.93;;
4527;SDS011;62320;51.520;6.818;2023-04-07T19:52:58;19.85;;;8.43;;
4527;SDS011;62320;51.520;6.818;2023-04-07T20:02:59;17.88;;;7.40;;
4527;SDS011;62320;51.520;6.818;2023-04-07T20:13:01;18.73;;;8.07;;
4527;SDS011;62320;51.520;6.818;2023-04-07T20:23:05;17.13;;;7.70;;
4527;SDS011;62320;51.520;6.818;2023-04-07T20:33:06;19.38;;;8.75;;
4527;SDS011;62320;51.520;6.818;2023-04-07T20:43:08;19.83;;;9.00;;
4527;SDS011;62320;51.520;6.818;2023-04-07T20:53:10;20.93;;;9.20;;
4527;SDS011;62320;51.520;6.818;2023-04-07T21:03:11;19.73;;;9.65;;
4527;SDS011;62320;51.520;6.818;2023-04-07T21:13:13;22.10;;;10.60;;
4527;SDS011;62320;51.520;6.818;2023-04-07T21:23:15;20.37;;;10.33;;
4527;SDS011;62320;51.520;6.818;2023-04-07T21:33:17;21.27;;;10.45;;
4527;SDS011;62320;51.520;6.818;2023-04-07T21:43:18;26.02;;;12.35;;
4527;SDS011;62320;51.520;6.818;2023-04-07T21:53:19;23.00;;;11.07;;
4527;SDS011;62320;51.520;6.818;2023-04-07T22:03:21;20.17;;;10.03;;
4527;SDS011;62320;51.520;6.818;2023-04-07T22:13:24;23.23;;;10.98;;
4527;SDS011;62320;51.520;6.818;2023-04-07T22:23:25;24.00;;;11.43;;
4527;SDS011;62320;51.520;6.818;2023-04-07T22:33:27;22.97;;;10.97;;
4527;SDS011;62320;51.520;6.818;2023-04-07T22:43:29;24.25;;;11.60;;
4527;SDS011;62320;51.520;6.818;2023-04-07T22:53:31;28.37;;;12.23;;
4527;SDS011;62320;51.520;6.818;2023-04-07T23:03:32;25.73;;;12.00;;
4527;SDS011;62320;51.520;6.818;2023-04-07T23:13:34;25.20;;;11.57;;
4527;SDS011;62320;51.520;6.818;2023-04-07T23:23:35;24.00;;;11.27;;
4527;SDS011;62320;51.520;6.818;2023-04-07T23:33:39;23.40;;;11.53;;
4527;SDS011;62320;51.520;6.818;2023-04-07T23:43:40;26.23;;;12.33;;
4527;SDS011;62320;51.520;6.818;2023-04-07T23:53:41;23.50;;;11.50;;
